Main page
METAR-TAF:

METAR-TAF

Airports :

Sparta Community Airport (Hunter Field)

Sparta, Illinois, United States

latitude: 38-08-56N, longitude: 089-41-55W, elevation: 538 ft

Current weather observation

The report was made 22 minutes ago, at 01:55 UTC
Wind 7 mph from the South/Southeast
Temperature 82°F
Humidity 66%
Pressure 29.91 in. Hg
Visibility: 10 miles
Clear sky

METAR: KSAR 250155Z AUTO 15006KT 10SM CLR 28/21 A2991 RMK AO2 T02780213

Time: 21:17 (02:17 UTC)


TAF: missing

Weather observations and forecasts of more than 4000 airports (METAR and TAF reports).

The available stations are represented by yellow and red dots on the map.

Hover mouse over dot to see the name of the station.

Then click to see weather observations and forecasts.

To change the map : click on the green buttons with a black cross to zoom in, on the green button with a dash to zoom out, or on the green arrows for adjacent maps.


METAR-TAF: